createdAt,value
2023-03-11T00:02:26.689Z,3.58
2023-03-11T00:05:13.060Z,1.60
2023-03-11T00:07:58.988Z,1.32
2023-03-11T00:10:45.023Z,2.05
2023-03-11T00:13:50.995Z,1.71
2023-03-11T00:16:36.750Z,1.73
2023-03-11T00:19:22.604Z,4.36
2023-03-11T00:22:08.479Z,16.12
2023-03-11T00:24:54.289Z,8.10
2023-03-11T00:27:40.345Z,4.44
2023-03-11T00:30:26.338Z,9.28
2023-03-11T00:33:12.142Z,4.08
2023-03-11T00:35:58.160Z,6.15
2023-03-11T00:38:43.939Z,19.16
2023-03-11T00:41:29.838Z,9.99
2023-03-11T00:44:15.855Z,8.19
2023-03-11T00:47:01.631Z,29.74
2023-03-11T00:49:47.501Z,12.69
2023-03-11T00:52:33.543Z,20.36
2023-03-11T00:55:19.421Z,40.01
2023-03-11T00:58:05.302Z,52.18
2023-03-11T01:00:51.070Z,48.02
2023-03-11T01:03:37.009Z,28.15
2023-03-11T01:06:23.476Z,30.28
2023-03-11T01:09:10.887Z,11.12
2023-03-11T01:11:56.865Z,11.20
2023-03-11T01:14:42.726Z,12.22
2023-03-11T01:17:28.547Z,21.65
2023-03-11T01:20:14.432Z,17.59
2023-03-11T01:23:00.272Z,25.52
2023-03-11T01:25:46.314Z,21.68
2023-03-11T01:28:32.174Z,33.49
2023-03-11T01:31:18.028Z,16.60
2023-03-11T01:34:03.817Z,17.51
2023-03-11T01:36:49.715Z,9.10
2023-03-11T01:39:35.494Z,18.07
2023-03-11T01:42:21.485Z,3.33
2023-03-11T01:45:07.291Z,3.81
2023-03-11T01:47:53.259Z,2.66
2023-03-11T01:50:39.115Z,1.69
2023-03-11T01:53:24.958Z,2.13
2023-03-11T01:56:10.681Z,2.16
2023-03-11T01:58:56.569Z,3.15
2023-03-11T02:01:42.373Z,3.07
2023-03-11T02:04:28.381Z,1.86
2023-03-11T02:07:14.168Z,1.19
2023-03-11T02:10:00.220Z,0.99
2023-03-11T02:12:46.054Z,1.03
2023-03-11T02:15:31.931Z,1.45
2023-03-11T02:18:17.974Z,1.69
2023-03-11T02:21:03.759Z,1.61
2023-03-11T02:23:51.556Z,1.46
2023-03-11T02:26:37.542Z,2.43
2023-03-11T02:29:23.396Z,5.79
2023-03-11T02:32:09.511Z,3.89
2023-03-11T02:34:55.548Z,1.68
2023-03-11T02:37:41.457Z,1.35
2023-03-11T02:40:27.349Z,1.02
2023-03-11T02:43:13.216Z,0.68
2023-03-11T02:45:58.978Z,0.64
2023-03-11T02:48:44.899Z,1.04
2023-03-11T02:51:30.614Z,1.95
2023-03-11T02:54:16.499Z,0.85
2023-03-11T02:57:02.363Z,1.44
2023-03-11T02:59:48.209Z,1.24
2023-03-11T03:02:34.088Z,1.37
2023-03-11T03:05:19.892Z,0.98
2023-03-11T03:08:05.793Z,0.89
2023-03-11T03:10:51.652Z,0.69
2023-03-11T03:13:37.414Z,0.71
2023-03-11T03:16:23.228Z,0.76
2023-03-11T03:19:09.167Z,1.14
2023-03-11T03:21:55.073Z,1.35
2023-03-11T03:24:40.945Z,1.31
2023-03-11T03:27:26.640Z,0.83
2023-03-11T03:30:12.569Z,0.94
2023-03-11T03:32:58.299Z,0.89
2023-03-11T03:35:44.145Z,0.57
2023-03-11T03:38:30.133Z,0.50
2023-03-11T03:41:16.020Z,0.42
2023-03-11T03:44:01.888Z,0.31
2023-03-11T03:46:47.727Z,0.28
2023-03-11T03:49:33.573Z,0.38
2023-03-11T03:52:19.402Z,0.33
2023-03-11T03:55:05.240Z,0.34
2023-03-11T03:57:53.053Z,0.35
2023-03-11T04:00:39.108Z,0.26
2023-03-11T04:03:24.886Z,0.31
2023-03-11T04:06:10.761Z,0.23
2023-03-11T04:08:56.671Z,0.32
2023-03-11T04:11:42.485Z,0.25
2023-03-11T04:14:28.496Z,0.25
2023-03-11T04:17:14.173Z,0.26
2023-03-11T04:20:00.015Z,0.24
2023-03-11T04:22:46.014Z,0.25
2023-03-11T04:25:33.949Z,0.26
2023-03-11T04:28:19.841Z,0.34
2023-03-11T04:31:05.881Z,3.52
2023-03-11T04:33:51.733Z,17.84
2023-03-11T04:36:37.736Z,29.70
2023-03-11T04:39:23.649Z,32.91
2023-03-11T04:42:09.443Z,4.46
2023-03-11T04:44:55.262Z,5.05
2023-03-11T04:47:41.246Z,13.26
2023-03-11T04:50:27.009Z,29.56
2023-03-11T04:53:12.959Z,25.90
2023-03-11T04:55:58.776Z,20.62
2023-03-11T04:58:44.619Z,18.50
2023-03-11T05:01:30.511Z,19.90
2023-03-11T05:04:16.343Z,16.14
2023-03-11T05:07:02.163Z,15.77
2023-03-11T05:09:47.976Z,13.50
2023-03-11T05:12:33.774Z,10.70
2023-03-11T05:15:19.721Z,12.37
2023-03-11T05:18:05.623Z,8.34
2023-03-11T05:20:51.685Z,7.14
2023-03-11T05:23:37.564Z,5.33
2023-03-11T05:26:23.501Z,6.97
2023-03-11T05:29:09.268Z,9.99
2023-03-11T05:31:55.375Z,4.50
2023-03-11T05:34:41.305Z,4.21
2023-03-11T05:37:27.336Z,5.60
2023-03-11T05:40:13.204Z,5.69
2023-03-11T05:42:59.245Z,5.16
2023-03-11T05:45:45.051Z,4.73
2023-03-11T05:48:30.995Z,6.61
2023-03-11T05:51:16.957Z,16.43
2023-03-11T05:54:02.761Z,19.89
2023-03-11T05:56:48.646Z,17.96
2023-03-11T05:59:34.603Z,17.17
2023-03-11T06:02:22.596Z,19.03
2023-03-11T06:05:09.309Z,21.85
2023-03-11T06:07:55.839Z,21.00
2023-03-11T06:10:41.693Z,10.59
2023-03-11T06:13:27.544Z,5.63
2023-03-11T06:16:13.459Z,6.11
2023-03-11T06:18:59.400Z,4.42
2023-03-11T06:21:45.325Z,2.81
2023-03-11T06:24:31.093Z,2.97
2023-03-11T06:27:17.026Z,2.94
2023-03-11T06:30:02.966Z,2.81
2023-03-11T06:32:48.888Z,2.17
2023-03-11T06:35:34.771Z,1.81
2023-03-11T06:38:20.566Z,1.26
2023-03-11T06:41:06.562Z,1.23
2023-03-11T06:43:52.569Z,1.21
2023-03-11T06:46:38.375Z,0.86
2023-03-11T06:49:24.202Z,0.87
2023-03-11T06:52:10.018Z,1.03
2023-03-11T06:54:55.912Z,0.83
2023-03-11T06:57:41.846Z,0.92
2023-03-11T07:00:27.621Z,0.92
2023-03-11T07:03:13.594Z,0.78
2023-03-11T07:05:59.431Z,0.80
2023-03-11T07:08:45.301Z,0.76
2023-03-11T07:11:31.265Z,0.64
2023-03-11T07:14:17.256Z,0.61
2023-03-11T07:17:03.120Z,0.67
2023-03-11T07:19:49.050Z,0.71
2023-03-11T07:22:34.926Z,0.77
2023-03-11T07:25:21.042Z,0.72
2023-03-11T07:28:06.837Z,0.81
2023-03-11T07:30:52.832Z,0.90
2023-03-11T07:33:39.188Z,0.84
2023-03-11T07:36:25.003Z,1.05
2023-03-11T07:39:10.919Z,1.24
2023-03-11T07:41:56.760Z,1.40
2023-03-11T07:44:42.600Z,1.26
2023-03-11T07:47:28.637Z,4.54
2023-03-11T07:50:16.438Z,11.34
2023-03-11T07:53:02.380Z,28.29
2023-03-11T07:55:48.117Z,54.12
2023-03-11T07:58:33.855Z,78.38
2023-03-11T08:01:19.639Z,46.15
2023-03-11T08:04:05.586Z,37.71
2023-03-11T08:06:51.444Z,20.38
2023-03-11T08:09:37.194Z,14.24
2023-03-11T08:12:23.045Z,8.00
2023-03-11T08:15:08.855Z,1.26
2023-03-11T08:17:54.809Z,1.02
2023-03-11T08:20:40.677Z,1.72
2023-03-11T08:23:26.756Z,3.89
2023-03-11T08:26:12.660Z,0.93
2023-03-11T08:28:58.439Z,1.80
2023-03-11T08:31:44.405Z,0.48
2023-03-11T08:34:30.373Z,0.48
2023-03-11T08:37:16.311Z,0.42
2023-03-11T08:40:02.042Z,0.35
2023-03-11T08:42:47.889Z,0.43
2023-03-11T08:45:33.809Z,0.55
2023-03-11T08:48:19.699Z,0.64
2023-03-11T08:51:05.621Z,0.92
2023-03-11T08:53:51.319Z,0.98
2023-03-11T08:56:39.779Z,0.69
2023-03-11T08:59:25.559Z,0.45
2023-03-11T09:02:11.550Z,0.33
2023-03-11T09:04:57.352Z,0.76
2023-03-11T09:07:43.301Z,1.04
2023-03-11T09:10:29.352Z,2.20
2023-03-11T09:13:15.191Z,4.81
2023-03-11T09:16:01.053Z,8.36
2023-03-11T09:18:49.143Z,10.94
2023-03-11T09:21:34.853Z,12.51
2023-03-11T09:24:20.781Z,16.78
2023-03-11T09:27:06.707Z,12.77
2023-03-11T09:29:52.536Z,6.43
2023-03-11T09:32:38.563Z,4.79
2023-03-11T09:35:24.416Z,4.38
2023-03-11T09:38:10.241Z,2.36
2023-03-11T09:40:56.231Z,3.43
2023-03-11T09:43:41.950Z,3.44
2023-03-11T09:46:27.946Z,1.58
2023-03-11T09:49:13.858Z,0.86
2023-03-11T09:51:59.774Z,0.87
2023-03-11T09:54:45.587Z,0.82
2023-03-11T09:57:31.281Z,0.98
2023-03-11T10:00:17.066Z,0.88
2023-03-11T10:03:03.096Z,0.98
2023-03-11T10:05:48.986Z,0.92
2023-03-11T10:08:34.925Z,2.23
2023-03-11T10:11:20.771Z,3.56
2023-03-11T10:14:06.547Z,2.55
2023-03-11T10:16:52.500Z,5.49
2023-03-11T10:19:38.302Z,14.52
2023-03-11T10:22:26.276Z,18.54
2023-03-11T10:25:12.220Z,14.34
2023-03-11T10:27:57.955Z,15.34
2023-03-11T10:30:43.739Z,13.48
2023-03-11T10:33:29.538Z,22.83
2023-03-11T10:36:15.301Z,22.63
2023-03-11T10:39:01.230Z,31.16
2023-03-11T10:41:47.000Z,34.82
2023-03-11T10:44:32.889Z,39.89
2023-03-11T10:47:18.874Z,31.69
2023-03-11T10:50:04.823Z,31.32
2023-03-11T10:52:50.883Z,32.25
2023-03-11T10:55:36.694Z,6.90
2023-03-11T10:58:22.743Z,6.54
2023-03-11T11:01:08.590Z,7.84
2023-03-11T11:03:54.686Z,8.01
2023-03-11T11:06:40.641Z,8.44
2023-03-11T11:09:27.030Z,6.36
2023-03-11T11:12:13.158Z,5.50
2023-03-11T11:14:59.108Z,5.15
2023-03-11T11:17:44.931Z,4.79
2023-03-11T11:20:30.925Z,5.34
2023-03-11T11:23:16.871Z,4.35
2023-03-11T11:26:02.757Z,3.89
2023-03-11T11:28:48.718Z,2.69
2023-03-11T11:31:34.947Z,3.43
2023-03-11T11:34:22.777Z,3.04
2023-03-11T11:37:09.425Z,2.54
2023-03-11T11:39:55.450Z,2.40
2023-03-11T11:42:41.293Z,2.76
2023-03-11T11:45:27.108Z,2.03
2023-03-11T11:48:12.860Z,1.90
2023-03-11T11:50:58.677Z,2.04
2023-03-11T11:53:44.743Z,2.16
2023-03-11T11:56:30.636Z,1.97
2023-03-11T11:59:16.560Z,2.02
2023-03-11T12:02:02.474Z,1.69
2023-03-11T12:04:48.454Z,2.57
2023-03-11T12:07:34.466Z,2.23
2023-03-11T12:10:23.685Z,2.14
2023-03-11T12:13:09.554Z,2.29
2023-03-11T12:15:55.497Z,2.30
2023-03-11T12:18:41.322Z,2.08
2023-03-11T12:21:27.354Z,2.18
2023-03-11T12:24:13.532Z,2.32
2023-03-11T12:26:59.437Z,2.37
2023-03-11T12:29:45.401Z,2.41
2023-03-11T12:32:31.423Z,2.64
2023-03-11T12:35:17.230Z,2.52
2023-03-11T12:38:03.071Z,2.39
2023-03-11T12:40:48.919Z,2.78
2023-03-11T12:43:34.854Z,2.62
2023-03-11T12:46:20.870Z,3.24
2023-03-11T12:49:06.731Z,3.08
2023-03-11T12:51:52.680Z,2.69
2023-03-11T12:54:38.510Z,2.80
2023-03-11T12:57:24.371Z,3.11
2023-03-11T13:00:10.320Z,3.00
2023-03-11T13:02:56.230Z,3.15
2023-03-11T13:05:42.198Z,2.95
2023-03-11T13:08:28.154Z,2.84
2023-03-11T13:11:14.080Z,3.38
2023-03-11T13:13:59.989Z,3.14
2023-03-11T13:16:45.882Z,3.51
2023-03-11T13:19:31.759Z,4.51
2023-03-11T13:22:17.702Z,17.06
2023-03-11T13:25:05.522Z,3.55
2023-03-11T13:27:51.339Z,4.27
2023-03-11T13:30:37.427Z,5.16
2023-03-11T13:33:23.270Z,4.78
2023-03-11T13:36:09.215Z,4.35
2023-03-11T13:38:55.168Z,5.06
2023-03-11T13:41:41.093Z,3.92
2023-03-11T13:44:26.940Z,4.30
2023-03-11T13:47:13.079Z,3.93
2023-03-11T13:49:59.195Z,4.11
2023-03-11T13:52:45.104Z,5.70
2023-03-11T13:55:30.961Z,19.70
2023-03-11T13:58:16.829Z,67.59
2023-03-11T14:01:02.897Z,97.18
2023-03-11T14:03:48.778Z,76.56
2023-03-11T14:06:34.796Z,92.50
2023-03-11T14:09:20.656Z,24.02
2023-03-11T14:12:06.640Z,4.71
2023-03-11T14:14:52.525Z,4.42
2023-03-11T14:17:38.366Z,3.98
2023-03-11T14:20:24.435Z,3.71
2023-03-11T14:23:12.220Z,3.65
2023-03-11T14:25:58.373Z,3.41
2023-03-11T14:28:45.194Z,3.00
2023-03-11T14:31:31.188Z,3.83
2023-03-11T14:34:17.014Z,3.68
2023-03-11T14:37:02.851Z,5.16
2023-03-11T14:39:51.154Z,6.30
2023-03-11T14:42:39.346Z,23.69
2023-03-11T14:45:25.362Z,68.95
2023-03-11T14:48:11.199Z,55.43
2023-03-11T14:50:57.100Z,96.67
2023-03-11T14:53:43.262Z,143.80
2023-03-11T14:56:29.043Z,69.96
2023-03-11T14:59:14.949Z,64.96
2023-03-11T15:02:01.034Z,69.50
2023-03-11T15:04:46.962Z,44.44
2023-03-11T15:07:34.627Z,27.11
2023-03-11T15:10:20.709Z,7.66
2023-03-11T15:13:06.482Z,4.40
2023-03-11T15:15:52.358Z,4.16
2023-03-11T15:18:38.138Z,4.18
2023-03-11T15:21:24.002Z,4.17
2023-03-11T15:24:10.012Z,4.36
2023-03-11T15:26:55.769Z,3.97
2023-03-11T15:29:41.663Z,4.65
2023-03-11T15:32:27.720Z,4.98
2023-03-11T15:35:13.593Z,5.49
2023-03-11T15:37:59.507Z,5.26
2023-03-11T15:40:46.081Z,4.72
2023-03-11T15:43:32.396Z,5.35
2023-03-11T15:46:18.465Z,4.73
2023-03-11T15:49:04.292Z,4.55
2023-03-11T15:51:50.198Z,4.27
2023-03-11T15:54:36.141Z,4.95
2023-03-11T15:57:21.973Z,5.02
2023-03-11T16:00:07.781Z,5.69
2023-03-11T16:02:53.613Z,9.15
2023-03-11T16:05:39.611Z,10.46
2023-03-11T16:08:27.173Z,10.22
2023-03-11T16:11:12.967Z,9.10
2023-03-11T16:13:58.982Z,7.22
2023-03-11T16:16:44.945Z,5.99
2023-03-11T16:19:30.765Z,5.22
2023-03-11T16:22:16.784Z,5.37
2023-03-11T16:25:02.860Z,5.64
2023-03-11T16:27:50.604Z,5.78
2023-03-11T16:30:36.394Z,6.48
2023-03-11T16:33:22.299Z,6.84
2023-03-11T16:36:08.275Z,8.87
2023-03-11T16:38:54.842Z,10.18
2023-03-11T16:41:40.775Z,8.37
2023-03-11T16:44:26.966Z,8.42
2023-03-11T16:47:13.107Z,19.78
2023-03-11T16:49:59.071Z,19.78
2023-03-11T16:52:45.396Z,10.65
2023-03-11T16:55:31.779Z,11.95
2023-03-11T16:58:17.783Z,9.43
2023-03-11T17:01:03.787Z,7.62
2023-03-11T17:03:49.630Z,7.78
2023-03-11T17:06:35.686Z,6.55
2023-03-11T17:09:21.862Z,6.95
2023-03-11T17:12:07.725Z,7.87
2023-03-11T17:14:53.651Z,7.21
2023-03-11T17:17:39.677Z,6.93
2023-03-11T17:20:25.610Z,7.48
2023-03-11T17:23:11.748Z,7.32
2023-03-11T17:25:58.739Z,8.46
2023-03-11T17:28:48.020Z,6.83
2023-03-11T17:31:34.130Z,5.92
2023-03-11T17:34:20.243Z,6.05
2023-03-11T17:37:06.535Z,5.92
2023-03-11T17:39:52.719Z,6.34
2023-03-11T17:42:39.037Z,6.54
2023-03-11T17:45:25.168Z,7.07
2023-03-11T17:48:11.392Z,7.93
2023-03-11T17:50:57.869Z,7.80
2023-03-11T17:53:45.755Z,7.60
2023-03-11T17:56:32.107Z,7.75
2023-03-11T17:59:18.101Z,7.81
2023-03-11T18:02:04.318Z,8.03
2023-03-11T18:04:50.416Z,9.11
2023-03-11T18:07:36.850Z,7.93
2023-03-11T18:10:22.809Z,8.52
2023-03-11T18:13:08.757Z,8.59
2023-03-11T18:15:54.890Z,8.71
2023-03-11T18:18:41.126Z,8.65
2023-03-11T18:21:27.112Z,8.67
2023-03-11T18:24:13.452Z,8.80
2023-03-11T18:26:59.677Z,9.22
2023-03-11T18:29:45.583Z,9.08
2023-03-11T18:32:31.534Z,9.25
2023-03-11T18:35:17.452Z,9.85
2023-03-11T18:38:03.381Z,9.29
2023-03-11T18:40:49.372Z,9.44
2023-03-11T18:43:35.432Z,9.36
2023-03-11T18:46:21.390Z,9.17
2023-03-11T18:49:07.326Z,9.21
2023-03-11T18:51:53.014Z,9.18
2023-03-11T18:54:39.017Z,9.13
2023-03-11T18:57:25.044Z,9.74
2023-03-11T19:00:12.909Z,9.50
2023-03-11T19:02:58.931Z,20.03
2023-03-11T19:05:45.109Z,16.02
2023-03-11T19:08:31.035Z,15.63
2023-03-11T19:11:16.927Z,12.08
2023-03-11T19:14:02.731Z,10.11
2023-03-11T19:16:48.729Z,8.72
2023-03-11T19:19:34.678Z,8.14
2023-03-11T19:22:20.671Z,7.92
2023-03-11T19:25:06.564Z,8.47
2023-03-11T19:27:52.403Z,8.74
2023-03-11T19:30:38.310Z,9.23
2023-03-11T19:33:24.717Z,10.21
2023-03-11T19:36:10.544Z,10.53
2023-03-11T19:38:56.495Z,11.15
2023-03-11T19:41:42.330Z,11.79
2023-03-11T19:44:28.107Z,11.59
2023-03-11T19:47:13.976Z,9.95
2023-03-11T19:49:59.986Z,12.20
2023-03-11T19:52:45.831Z,13.92
2023-03-11T19:55:33.835Z,14.08
2023-03-11T19:58:19.820Z,12.18
2023-03-11T20:01:05.789Z,11.81
2023-03-11T20:03:51.918Z,10.83
2023-03-11T20:06:37.834Z,10.98
2023-03-11T20:09:24.151Z,10.68
2023-03-11T20:12:10.122Z,10.34
2023-03-11T20:14:55.924Z,10.34
2023-03-11T20:17:41.864Z,10.45
2023-03-11T20:20:27.828Z,10.49
2023-03-11T20:23:13.676Z,10.66
2023-03-11T20:25:59.581Z,10.15
2023-03-11T20:28:45.578Z,9.95
2023-03-11T20:31:31.618Z,9.48
2023-03-11T20:34:17.817Z,8.85
2023-03-11T20:37:03.757Z,8.63
2023-03-11T20:39:49.822Z,7.77
2023-03-11T20:42:35.849Z,7.18
2023-03-11T20:45:22.324Z,7.21
2023-03-11T20:48:08.654Z,7.05
2023-03-11T20:50:54.588Z,6.78
2023-03-11T20:53:40.767Z,6.81
2023-03-11T20:56:26.838Z,6.93
2023-03-11T20:59:12.679Z,7.04
2023-03-11T21:01:58.651Z,8.02
2023-03-11T21:04:44.554Z,8.28
2023-03-11T21:07:32.328Z,8.30
2023-03-11T21:10:18.278Z,7.95
2023-03-11T21:13:04.434Z,8.10
2023-03-11T21:15:52.867Z,8.36
2023-03-11T21:18:39.081Z,8.48
2023-03-11T21:21:25.118Z,8.91
2023-03-11T21:24:11.254Z,9.25
2023-03-11T21:26:57.323Z,10.25
2023-03-11T21:29:43.619Z,9.58
2023-03-11T21:32:29.627Z,9.41
2023-03-11T21:35:21.004Z,9.51
2023-03-11T21:38:07.347Z,9.09
2023-03-11T21:40:53.153Z,9.16
2023-03-11T21:43:38.926Z,8.41
2023-03-11T21:46:25.093Z,7.93
2023-03-11T21:49:11.065Z,6.77
2023-03-11T21:51:57.238Z,7.14
2023-03-11T21:54:43.170Z,7.51
2023-03-11T21:57:29.046Z,7.38
2023-03-11T22:00:15.143Z,7.51
2023-03-11T22:03:01.344Z,7.58
2023-03-11T22:05:47.081Z,6.72
2023-03-11T22:08:33.007Z,6.84
2023-03-11T22:11:19.085Z,6.95
2023-03-11T22:14:07.163Z,6.93
2023-03-11T22:16:53.636Z,6.66
2023-03-11T22:19:39.744Z,6.26
2023-03-11T22:22:26.137Z,5.95
2023-03-11T22:25:12.460Z,5.94
2023-03-11T22:27:58.282Z,6.12
2023-03-11T22:30:44.075Z,6.31
2023-03-11T22:33:29.919Z,6.12
2023-03-11T22:36:16.944Z,6.26
2023-03-11T22:39:02.744Z,6.37
2023-03-11T22:41:48.574Z,7.35
2023-03-11T22:44:34.409Z,7.07
2023-03-11T22:47:20.334Z,7.93
2023-03-11T22:50:06.139Z,8.05
2023-03-11T22:52:52.091Z,7.88
2023-03-11T22:55:38.044Z,10.40
2023-03-11T22:58:24.102Z,70.60
2023-03-11T23:01:10.043Z,73.18
2023-03-11T23:03:55.972Z,78.56
2023-03-11T23:06:41.823Z,63.37
2023-03-11T23:09:27.824Z,23.62
2023-03-11T23:12:13.746Z,24.27
2023-03-11T23:15:01.577Z,18.45
2023-03-11T23:17:47.672Z,12.64
2023-03-11T23:20:33.421Z,8.99
2023-03-11T23:23:19.504Z,18.05
2023-03-11T23:26:05.314Z,16.29
2023-03-11T23:28:51.277Z,9.56
2023-03-11T23:31:37.132Z,9.91
2023-03-11T23:34:22.896Z,9.01
2023-03-11T23:37:08.705Z,9.50
2023-03-11T23:39:54.513Z,10.80
2023-03-11T23:42:40.269Z,7.78
2023-03-11T23:45:26.164Z,7.20
2023-03-11T23:48:12.074Z,7.46
2023-03-11T23:50:58.047Z,6.21
2023-03-11T23:53:44.016Z,6.76
2023-03-11T23:56:29.905Z,6.89
2023-03-11T23:59:15.719Z,6.24
